sensor_id;sensor_type;location;lat;lon;timestamp;P1;durP1;ratioP1;P2;durP2;ratioP2
76708;SDS011;74360;44.410;0.216;2023-12-22T00:00:48;9.63;;;1.17;;
76708;SDS011;74360;44.410;0.216;2023-12-22T00:06:19;7.67;;;1.10;;
76708;SDS011;74360;44.410;0.216;2023-12-22T00:11:52;9.27;;;1.53;;
76708;SDS011;74360;44.410;0.216;2023-12-22T00:17:25;6.77;;;1.60;;
76708;SDS011;74360;44.410;0.216;2023-12-22T00:22:56;5.60;;;0.90;;
76708;SDS011;74360;44.410;0.216;2023-12-22T00:28:30;11.30;;;1.40;;
76708;SDS011;74360;44.410;0.216;2023-12-22T00:34:02;6.93;;;0.97;;
76708;SDS011;74360;44.410;0.216;2023-12-22T00:39:35;7.57;;;1.17;;
76708;SDS011;74360;44.410;0.216;2023-12-22T00:45:08;5.93;;;0.80;;
76708;SDS011;74360;44.410;0.216;2023-12-22T00:50:41;3.07;;;0.70;;
76708;SDS011;74360;44.410;0.216;2023-12-22T00:56:14;5.40;;;0.80;;
76708;SDS011;74360;44.410;0.216;2023-12-22T01:01:48;7.07;;;0.70;;
76708;SDS011;74360;44.410;0.216;2023-12-22T01:12:52;5.50;;;0.90;;
76708;SDS011;74360;44.410;0.216;2023-12-22T01:18:29;6.77;;;0.90;;
76708;SDS011;74360;44.410;0.216;2023-12-22T01:23:59;8.10;;;1.00;;
76708;SDS011;74360;44.410;0.216;2023-12-22T01:29:31;8.73;;;1.00;;
76708;SDS011;74360;44.410;0.216;2023-12-22T01:35:10;4.33;;;0.97;;
76708;SDS011;74360;44.410;0.216;2023-12-22T01:40:38;2.70;;;0.63;;
76708;SDS011;74360;44.410;0.216;2023-12-22T01:46:10;4.53;;;0.70;;
76708;SDS011;74360;44.410;0.216;2023-12-22T01:51:42;8.10;;;1.33;;
76708;SDS011;74360;44.410;0.216;2023-12-22T01:57:18;7.33;;;1.03;;
76708;SDS011;74360;44.410;0.216;2023-12-22T02:02:49;3.63;;;0.63;;
76708;SDS011;74360;44.410;0.216;2023-12-22T02:08:22;3.97;;;0.50;;
76708;SDS011;74360;44.410;0.216;2023-12-22T02:13:53;3.73;;;0.60;;
76708;SDS011;74360;44.410;0.216;2023-12-22T02:19:31;1.77;;;0.47;;
76708;SDS011;74360;44.410;0.216;2023-12-22T02:25:00;1.67;;;0.43;;
76708;SDS011;74360;44.410;0.216;2023-12-22T02:30:34;2.53;;;0.50;;
76708;SDS011;74360;44.410;0.216;2023-12-22T02:36:06;4.60;;;0.70;;
76708;SDS011;74360;44.410;0.216;2023-12-22T02:41:39;3.57;;;0.47;;
76708;SDS011;74360;44.410;0.216;2023-12-22T02:47:11;3.17;;;0.50;;
76708;SDS011;74360;44.410;0.216;2023-12-22T02:52:44;3.23;;;0.50;;
76708;SDS011;74360;44.410;0.216;2023-12-22T02:58:16;3.83;;;0.60;;
76708;SDS011;74360;44.410;0.216;2023-12-22T03:03:49;3.73;;;0.50;;
76708;SDS011;74360;44.410;0.216;2023-12-22T03:09:22;1.50;;;0.40;;
76708;SDS011;74360;44.410;0.216;2023-12-22T03:14:54;1.17;;;0.43;;
76708;SDS011;74360;44.410;0.216;2023-12-22T03:20:26;1.17;;;0.40;;
76708;SDS011;74360;44.410;0.216;2023-12-22T03:26:02;2.30;;;0.53;;
76708;SDS011;74360;44.410;0.216;2023-12-22T03:31:32;6.10;;;0.73;;
76708;SDS011;74360;44.410;0.216;2023-12-22T03:37:03;2.20;;;0.60;;
76708;SDS011;74360;44.410;0.216;2023-12-22T03:42:36;2.13;;;0.37;;
76708;SDS011;74360;44.410;0.216;2023-12-22T03:48:08;2.80;;;0.60;;
76708;SDS011;74360;44.410;0.216;2023-12-22T03:53:42;3.63;;;1.10;;
76708;SDS011;74360;44.410;0.216;2023-12-22T03:59:19;2.53;;;0.50;;
76708;SDS011;74360;44.410;0.216;2023-12-22T04:04:47;2.17;;;0.57;;
76708;SDS011;74360;44.410;0.216;2023-12-22T04:10:19;3.13;;;0.60;;
76708;SDS011;74360;44.410;0.216;2023-12-22T04:15:52;2.57;;;0.70;;
76708;SDS011;74360;44.410;0.216;2023-12-22T04:21:25;4.57;;;0.70;;
76708;SDS011;74360;44.410;0.216;2023-12-22T04:26:59;7.13;;;1.00;;
76708;SDS011;74360;44.410;0.216;2023-12-22T04:32:32;7.30;;;0.90;;
76708;SDS011;74360;44.410;0.216;2023-12-22T04:38:05;10.40;;;0.87;;
76708;SDS011;74360;44.410;0.216;2023-12-22T04:43:38;8.00;;;1.00;;
76708;SDS011;74360;44.410;0.216;2023-12-22T04:49:12;8.20;;;1.67;;
76708;SDS011;74360;44.410;0.216;2023-12-22T04:54:45;6.70;;;0.80;;
76708;SDS011;74360;44.410;0.216;2023-12-22T05:00:18;3.83;;;0.93;;
76708;SDS011;74360;44.410;0.216;2023-12-22T05:05:50;8.50;;;1.10;;
76708;SDS011;74360;44.410;0.216;2023-12-22T05:11:22;8.70;;;1.10;;
76708;SDS011;74360;44.410;0.216;2023-12-22T05:16:56;5.73;;;0.97;;
76708;SDS011;74360;44.410;0.216;2023-12-22T05:22:30;5.57;;;0.77;;
76708;SDS011;74360;44.410;0.216;2023-12-22T05:28:00;6.23;;;0.90;;
76708;SDS011;74360;44.410;0.216;2023-12-22T05:33:31;4.87;;;0.70;;
76708;SDS011;74360;44.410;0.216;2023-12-22T05:39:03;6.00;;;1.00;;
76708;SDS011;74360;44.410;0.216;2023-12-22T05:44:35;10.70;;;1.00;;
76708;SDS011;74360;44.410;0.216;2023-12-22T05:50:07;6.30;;;1.13;;
76708;SDS011;74360;44.410;0.216;2023-12-22T05:55:41;8.40;;;1.10;;
76708;SDS011;74360;44.410;0.216;2023-12-22T06:01:14;6.90;;;0.90;;
76708;SDS011;74360;44.410;0.216;2023-12-22T06:06:46;7.93;;;1.57;;
76708;SDS011;74360;44.410;0.216;2023-12-22T06:12:19;7.87;;;1.00;;
76708;SDS011;74360;44.410;0.216;2023-12-22T06:17:50;4.43;;;0.80;;
76708;SDS011;74360;44.410;0.216;2023-12-22T06:23:23;5.20;;;0.70;;
76708;SDS011;74360;44.410;0.216;2023-12-22T06:28:57;7.33;;;1.03;;
76708;SDS011;74360;44.410;0.216;2023-12-22T06:34:30;7.43;;;1.20;;
76708;SDS011;74360;44.410;0.216;2023-12-22T06:40:03;8.57;;;1.03;;
76708;SDS011;74360;44.410;0.216;2023-12-22T06:45:35;9.23;;;1.10;;
76708;SDS011;74360;44.410;0.216;2023-12-22T06:51:11;11.97;;;1.30;;
76708;SDS011;74360;44.410;0.216;2023-12-22T06:56:40;8.13;;;1.00;;
76708;SDS011;74360;44.410;0.216;2023-12-22T07:02:13;6.37;;;1.13;;
76708;SDS011;74360;44.410;0.216;2023-12-22T07:07:46;5.67;;;1.43;;
76708;SDS011;74360;44.410;0.216;2023-12-22T07:13:19;5.43;;;1.20;;
76708;SDS011;74360;44.410;0.216;2023-12-22T07:18:52;5.90;;;1.80;;
76708;SDS011;74360;44.410;0.216;2023-12-22T07:24:25;6.83;;;1.27;;
76708;SDS011;74360;44.410;0.216;2023-12-22T07:29:57;5.83;;;1.50;;
76708;SDS011;74360;44.410;0.216;2023-12-22T07:35:30;5.37;;;1.40;;
76708;SDS011;74360;44.410;0.216;2023-12-22T07:41:03;5.00;;;1.17;;
76708;SDS011;74360;44.410;0.216;2023-12-22T07:46:35;8.17;;;2.00;;
76708;SDS011;74360;44.410;0.216;2023-12-22T07:52:07;7.97;;;2.80;;
76708;SDS011;74360;44.410;0.216;2023-12-22T07:57:40;7.60;;;2.27;;
76708;SDS011;74360;44.410;0.216;2023-12-22T08:03:12;7.47;;;1.43;;
76708;SDS011;74360;44.410;0.216;2023-12-22T08:08:45;4.90;;;1.17;;
76708;SDS011;74360;44.410;0.216;2023-12-22T08:14:17;3.63;;;0.90;;
76708;SDS011;74360;44.410;0.216;2023-12-22T08:19:50;3.97;;;0.70;;
76708;SDS011;74360;44.410;0.216;2023-12-22T08:25:23;4.30;;;0.80;;
76708;SDS011;74360;44.410;0.216;2023-12-22T08:30:55;3.23;;;0.63;;
76708;SDS011;74360;44.410;0.216;2023-12-22T08:36:28;4.37;;;0.67;;
76708;SDS011;74360;44.410;0.216;2023-12-22T08:42:01;3.97;;;0.87;;
76708;SDS011;74360;44.410;0.216;2023-12-22T08:47:34;1.47;;;0.57;;
76708;SDS011;74360;44.410;0.216;2023-12-22T08:53:06;5.10;;;0.97;;
76708;SDS011;74360;44.410;0.216;2023-12-22T08:58:40;4.23;;;0.90;;
76708;SDS011;74360;44.410;0.216;2023-12-22T09:04:13;3.73;;;0.57;;
76708;SDS011;74360;44.410;0.216;2023-12-22T09:09:46;4.53;;;0.70;;
76708;SDS011;74360;44.410;0.216;2023-12-22T09:15:19;2.43;;;0.63;;
76708;SDS011;74360;44.410;0.216;2023-12-22T09:20:53;6.97;;;1.07;;
76708;SDS011;74360;44.410;0.216;2023-12-22T09:26:24;6.07;;;0.80;;
76708;SDS011;74360;44.410;0.216;2023-12-22T09:31:59;3.77;;;0.80;;
76708;SDS011;74360;44.410;0.216;2023-12-22T09:37:32;4.37;;;1.00;;
76708;SDS011;74360;44.410;0.216;2023-12-22T09:43:06;5.43;;;0.70;;
76708;SDS011;74360;44.410;0.216;2023-12-22T09:48:38;4.20;;;0.63;;
76708;SDS011;74360;44.410;0.216;2023-12-22T09:54:09;8.47;;;0.90;;
76708;SDS011;74360;44.410;0.216;2023-12-22T09:59:40;5.53;;;1.10;;
76708;SDS011;74360;44.410;0.216;2023-12-22T10:05:13;6.30;;;1.37;;
76708;SDS011;74360;44.410;0.216;2023-12-22T10:10:45;6.17;;;1.27;;
76708;SDS011;74360;44.410;0.216;2023-12-22T10:16:17;3.33;;;0.70;;
76708;SDS011;74360;44.410;0.216;2023-12-22T10:21:49;4.43;;;0.70;;
76708;SDS011;74360;44.410;0.216;2023-12-22T10:27:23;5.57;;;0.87;;
76708;SDS011;74360;44.410;0.216;2023-12-22T10:32:56;2.37;;;0.50;;
76708;SDS011;74360;44.410;0.216;2023-12-22T10:38:32;2.30;;;0.73;;
76708;SDS011;74360;44.410;0.216;2023-12-22T10:44:01;3.90;;;0.60;;
76708;SDS011;74360;44.410;0.216;2023-12-22T10:49:34;1.43;;;0.33;;
76708;SDS011;74360;44.410;0.216;2023-12-22T10:55:07;4.33;;;0.70;;
76708;SDS011;74360;44.410;0.216;2023-12-22T11:00:39;3.67;;;0.90;;
76708;SDS011;74360;44.410;0.216;2023-12-22T11:06:12;2.37;;;0.47;;
76708;SDS011;74360;44.410;0.216;2023-12-22T11:11:44;2.87;;;0.60;;
76708;SDS011;74360;44.410;0.216;2023-12-22T11:17:17;3.60;;;1.13;;
76708;SDS011;74360;44.410;0.216;2023-12-22T11:22:50;1.83;;;0.77;;
76708;SDS011;74360;44.410;0.216;2023-12-22T11:28:22;1.80;;;0.33;;
76708;SDS011;74360;44.410;0.216;2023-12-22T11:33:54;1.73;;;0.40;;
76708;SDS011;74360;44.410;0.216;2023-12-22T11:39:27;1.97;;;0.50;;
76708;SDS011;74360;44.410;0.216;2023-12-22T11:45:00;1.53;;;0.30;;
76708;SDS011;74360;44.410;0.216;2023-12-22T11:50:33;2.20;;;0.57;;
76708;SDS011;74360;44.410;0.216;2023-12-22T11:56:09;2.10;;;0.43;;
76708;SDS011;74360;44.410;0.216;2023-12-22T12:01:39;2.33;;;0.70;;
76708;SDS011;74360;44.410;0.216;2023-12-22T12:12:43;3.37;;;0.40;;
76708;SDS011;74360;44.410;0.216;2023-12-22T12:18:15;2.57;;;0.53;;
76708;SDS011;74360;44.410;0.216;2023-12-22T12:23:47;2.77;;;0.60;;
76708;SDS011;74360;44.410;0.216;2023-12-22T12:29:20;2.53;;;0.60;;
76708;SDS011;74360;44.410;0.216;2023-12-22T12:34:56;2.80;;;0.57;;
76708;SDS011;74360;44.410;0.216;2023-12-22T12:40:27;1.87;;;0.50;;
76708;SDS011;74360;44.410;0.216;2023-12-22T12:46:03;0.47;;;0.23;;
76708;SDS011;74360;44.410;0.216;2023-12-22T12:51:35;1.63;;;0.30;;
76708;SDS011;74360;44.410;0.216;2023-12-22T12:57:03;2.67;;;0.60;;
76708;SDS011;74360;44.410;0.216;2023-12-22T13:02:35;1.10;;;0.27;;
76708;SDS011;74360;44.410;0.216;2023-12-22T13:08:09;4.93;;;0.40;;
76708;SDS011;74360;44.410;0.216;2023-12-22T13:13:41;0.80;;;0.30;;
76708;SDS011;74360;44.410;0.216;2023-12-22T13:19:14;2.67;;;0.30;;
76708;SDS011;74360;44.410;0.216;2023-12-22T13:35:53;3.27;;;0.70;;
76708;SDS011;74360;44.410;0.216;2023-12-22T13:41:25;5.40;;;0.67;;
76708;SDS011;74360;44.410;0.216;2023-12-22T13:46:57;4.77;;;0.53;;
76708;SDS011;74360;44.410;0.216;2023-12-22T13:52:32;2.30;;;0.50;;
76708;SDS011;74360;44.410;0.216;2023-12-22T13:58:02;3.47;;;0.60;;
76708;SDS011;74360;44.410;0.216;2023-12-22T14:03:34;5.97;;;0.70;;
76708;SDS011;74360;44.410;0.216;2023-12-22T14:09:07;3.37;;;0.93;;
76708;SDS011;74360;44.410;0.216;2023-12-22T14:14:39;4.60;;;1.23;;
76708;SDS011;74360;44.410;0.216;2023-12-22T14:20:12;3.10;;;0.90;;
76708;SDS011;74360;44.410;0.216;2023-12-22T14:25:44;5.90;;;1.27;;
76708;SDS011;74360;44.410;0.216;2023-12-22T14:31:18;3.57;;;0.80;;
76708;SDS011;74360;44.410;0.216;2023-12-22T14:36:50;4.40;;;1.20;;
76708;SDS011;74360;44.410;0.216;2023-12-22T14:42:22;4.67;;;1.10;;
76708;SDS011;74360;44.410;0.216;2023-12-22T14:47:54;4.07;;;0.73;;
76708;SDS011;74360;44.410;0.216;2023-12-22T14:53:27;3.57;;;0.67;;
76708;SDS011;74360;44.410;0.216;2023-12-22T14:59:00;1.57;;;0.53;;
76708;SDS011;74360;44.410;0.216;2023-12-22T15:04:34;0.57;;;0.20;;
76708;SDS011;74360;44.410;0.216;2023-12-22T15:10:07;1.20;;;0.30;;
76708;SDS011;74360;44.410;0.216;2023-12-22T15:15:39;1.17;;;0.37;;
76708;SDS011;74360;44.410;0.216;2023-12-22T15:21:18;1.77;;;0.50;;
76708;SDS011;74360;44.410;0.216;2023-12-22T15:32:18;1.33;;;0.40;;
76708;SDS011;74360;44.410;0.216;2023-12-22T15:37:51;1.23;;;0.50;;
76708;SDS011;74360;44.410;0.216;2023-12-22T15:43:23;9.70;;;1.23;;
76708;SDS011;74360;44.410;0.216;2023-12-22T15:48:55;10.30;;;1.60;;
76708;SDS011;74360;44.410;0.216;2023-12-22T15:54:28;12.30;;;2.30;;
76708;SDS011;74360;44.410;0.216;2023-12-22T16:00:01;10.07;;;2.00;;
76708;SDS011;74360;44.410;0.216;2023-12-22T16:05:34;13.00;;;2.20;;
76708;SDS011;74360;44.410;0.216;2023-12-22T16:11:07;13.83;;;2.60;;
76708;SDS011;74360;44.410;0.216;2023-12-22T16:16:39;10.07;;;1.20;;
76708;SDS011;74360;44.410;0.216;2023-12-22T16:22:12;12.73;;;1.50;;
76708;SDS011;74360;44.410;0.216;2023-12-22T16:27:44;10.90;;;1.63;;
76708;SDS011;74360;44.410;0.216;2023-12-22T16:33:16;12.20;;;1.73;;
76708;SDS011;74360;44.410;0.216;2023-12-22T16:38:49;13.30;;;1.60;;
76708;SDS011;74360;44.410;0.216;2023-12-22T16:44:23;13.43;;;1.90;;
76708;SDS011;74360;44.410;0.216;2023-12-22T16:49:54;15.50;;;2.90;;
76708;SDS011;74360;44.410;0.216;2023-12-22T17:01:00;11.83;;;1.53;;
76708;SDS011;74360;44.410;0.216;2023-12-22T17:06:32;16.37;;;2.60;;
76708;SDS011;74360;44.410;0.216;2023-12-22T17:12:05;14.57;;;2.20;;
76708;SDS011;74360;44.410;0.216;2023-12-22T17:17:37;14.33;;;2.60;;
76708;SDS011;74360;44.410;0.216;2023-12-22T17:23:10;18.73;;;2.70;;
76708;SDS011;74360;44.410;0.216;2023-12-22T17:28:42;11.70;;;2.43;;
76708;SDS011;74360;44.410;0.216;2023-12-22T17:34:14;14.67;;;2.53;;
76708;SDS011;74360;44.410;0.216;2023-12-22T17:39:46;17.07;;;2.33;;
76708;SDS011;74360;44.410;0.216;2023-12-22T17:45:20;12.10;;;2.27;;
76708;SDS011;74360;44.410;0.216;2023-12-22T17:50:51;9.27;;;1.70;;
76708;SDS011;74360;44.410;0.216;2023-12-22T17:56:23;13.90;;;2.10;;
76708;SDS011;74360;44.410;0.216;2023-12-22T18:01:57;19.33;;;3.77;;
76708;SDS011;74360;44.410;0.216;2023-12-22T18:07:29;15.73;;;3.17;;
76708;SDS011;74360;44.410;0.216;2023-12-22T18:13:02;12.50;;;2.60;;
76708;SDS011;74360;44.410;0.216;2023-12-22T18:18:35;11.83;;;2.30;;
76708;SDS011;74360;44.410;0.216;2023-12-22T18:24:08;17.70;;;3.03;;
76708;SDS011;74360;44.410;0.216;2023-12-22T18:29:41;14.27;;;2.40;;
76708;SDS011;74360;44.410;0.216;2023-12-22T18:35:15;17.33;;;2.57;;
76708;SDS011;74360;44.410;0.216;2023-12-22T18:40:47;11.67;;;2.57;;
76708;SDS011;74360;44.410;0.216;2023-12-22T18:46:19;16.93;;;3.23;;
76708;SDS011;74360;44.410;0.216;2023-12-22T18:51:51;16.53;;;3.63;;
76708;SDS011;74360;44.410;0.216;2023-12-22T18:57:23;15.70;;;2.60;;
76708;SDS011;74360;44.410;0.216;2023-12-22T19:08:27;13.20;;;2.77;;
76708;SDS011;74360;44.410;0.216;2023-12-22T19:14:00;13.43;;;2.40;;
76708;SDS011;74360;44.410;0.216;2023-12-22T19:19:32;14.37;;;2.40;;
76708;SDS011;74360;44.410;0.216;2023-12-22T19:25:05;15.67;;;3.80;;
76708;SDS011;74360;44.410;0.216;2023-12-22T19:30:38;16.40;;;2.60;;
76708;SDS011;74360;44.410;0.216;2023-12-22T19:36:12;18.93;;;2.13;;
76708;SDS011;74360;44.410;0.216;2023-12-22T19:41:43;18.20;;;2.63;;
76708;SDS011;74360;44.410;0.216;2023-12-22T19:47:15;13.67;;;2.40;;
76708;SDS011;74360;44.410;0.216;2023-12-22T19:52:48;14.97;;;3.27;;
76708;SDS011;74360;44.410;0.216;2023-12-22T19:58:22;13.37;;;3.50;;
76708;SDS011;74360;44.410;0.216;2023-12-22T20:03:54;12.57;;;2.40;;
76708;SDS011;74360;44.410;0.216;2023-12-22T20:09:26;12.17;;;3.30;;
76708;SDS011;74360;44.410;0.216;2023-12-22T20:15:00;11.47;;;3.43;;
76708;SDS011;74360;44.410;0.216;2023-12-22T20:20:33;14.57;;;3.03;;
76708;SDS011;74360;44.410;0.216;2023-12-22T20:26:04;20.10;;;3.30;;
76708;SDS011;74360;44.410;0.216;2023-12-22T20:31:37;18.00;;;3.57;;
76708;SDS011;74360;44.410;0.216;2023-12-22T20:37:10;19.70;;;4.00;;
76708;SDS011;74360;44.410;0.216;2023-12-22T20:42:42;14.27;;;2.80;;
76708;SDS011;74360;44.410;0.216;2023-12-22T20:48:15;15.57;;;2.97;;
76708;SDS011;74360;44.410;0.216;2023-12-22T20:53:47;13.03;;;2.43;;
76708;SDS011;74360;44.410;0.216;2023-12-22T20:59:21;15.27;;;2.60;;
76708;SDS011;74360;44.410;0.216;2023-12-22T21:04:52;21.87;;;2.97;;
76708;SDS011;74360;44.410;0.216;2023-12-22T21:10:25;18.83;;;3.60;;
76708;SDS011;74360;44.410;0.216;2023-12-22T21:15:57;20.67;;;3.80;;
76708;SDS011;74360;44.410;0.216;2023-12-22T21:21:30;22.80;;;3.03;;
76708;SDS011;74360;44.410;0.216;2023-12-22T21:27:02;12.60;;;2.87;;
76708;SDS011;74360;44.410;0.216;2023-12-22T21:32:34;14.37;;;2.73;;
76708;SDS011;74360;44.410;0.216;2023-12-22T21:38:06;25.93;;;4.37;;
76708;SDS011;74360;44.410;0.216;2023-12-22T21:43:40;20.60;;;3.73;;
76708;SDS011;74360;44.410;0.216;2023-12-22T21:49:12;13.27;;;3.03;;
76708;SDS011;74360;44.410;0.216;2023-12-22T21:54:45;18.13;;;3.10;;
76708;SDS011;74360;44.410;0.216;2023-12-22T22:00:18;22.10;;;3.03;;
76708;SDS011;74360;44.410;0.216;2023-12-22T22:05:51;18.17;;;2.93;;
76708;SDS011;74360;44.410;0.216;2023-12-22T22:11:23;19.23;;;2.47;;
76708;SDS011;74360;44.410;0.216;2023-12-22T22:16:56;16.60;;;3.10;;
76708;SDS011;74360;44.410;0.216;2023-12-22T22:22:29;16.17;;;2.80;;
76708;SDS011;74360;44.410;0.216;2023-12-22T22:28:01;19.43;;;2.33;;
76708;SDS011;74360;44.410;0.216;2023-12-22T22:33:33;13.97;;;2.17;;
76708;SDS011;74360;44.410;0.216;2023-12-22T22:39:06;18.80;;;3.23;;
76708;SDS011;74360;44.410;0.216;2023-12-22T22:44:43;12.10;;;2.53;;
76708;SDS011;74360;44.410;0.216;2023-12-22T22:50:10;12.97;;;2.37;;
76708;SDS011;74360;44.410;0.216;2023-12-22T22:55:44;14.93;;;2.83;;
76708;SDS011;74360;44.410;0.216;2023-12-22T23:06:49;12.53;;;1.90;;
76708;SDS011;74360;44.410;0.216;2023-12-22T23:12:22;12.17;;;1.67;;
76708;SDS011;74360;44.410;0.216;2023-12-22T23:17:53;16.90;;;2.83;;
76708;SDS011;74360;44.410;0.216;2023-12-22T23:23:26;12.30;;;1.97;;
76708;SDS011;74360;44.410;0.216;2023-12-22T23:28:59;14.03;;;2.20;;
76708;SDS011;74360;44.410;0.216;2023-12-22T23:34:31;17.90;;;3.03;;
76708;SDS011;74360;44.410;0.216;2023-12-22T23:40:04;15.10;;;1.87;;
76708;SDS011;74360;44.410;0.216;2023-12-22T23:45:36;13.67;;;1.93;;
76708;SDS011;74360;44.410;0.216;2023-12-22T23:51:11;10.80;;;1.70;;
76708;SDS011;74360;44.410;0.216;2023-12-22T23:56:44;20.33;;;1.90;;
